Time;durP1;ratioP1;P1;durP2;ratioP2;P2;SDS_P1;SDS_P2;PMS_P1;PMS_P2;Temp;Humidity;BMP_temperature;BMP_pressure;BME280_temperature;BME280_humidity;BME280_pressure;Samples;Min_cycle;Max_cycle;Signal;HPM_P1;HPM_P2
2021/10/13 00:00:15;;;;;;;28.07;15.32;;;;;;;7.92;65.62;100811.93;1760899;80;25855;-65
2021/10/13 00:02:45;;;;;;;23.12;14.93;;;;;;;7.93;65.37;100816.31;1731305;81;25771;-64
2021/10/13 00:05:12;;;;;;;24.50;14.33;;;;;;;7.91;64.81;100808.88;1758012;79;27446;-64
2021/10/13 00:07:39;;;;;;;26.23;16.37;;;;;;;7.87;64.85;100807.39;1765570;80;25845;-64
2021/10/13 00:10:07;;;;;;;24.92;14.65;;;;;;;7.82;64.91;100811.77;1764830;80;25793;-64
2021/10/13 00:12:34;;;;;;;26.05;14.47;;;;;;;7.77;64.72;100801.91;1763084;79;25791;-64
2021/10/13 00:15:06;;;;;;;25.60;14.95;;;;;;;7.73;64.82;100802.63;1735908;81;25775;-64
2021/10/13 00:17:33;;;;;;;30.62;15.48;;;;;;;7.67;64.73;100795.03;1735068;81;27426;-64
2021/10/13 00:20:02;;;;;;;23.98;15.83;;;;;;;7.63;64.79;100790.41;1714376;82;26597;-64
2021/10/13 00:22:29;;;;;;;20.88;15.00;;;;;;;7.62;64.75;100794.55;1735133;81;25733;-64
2021/10/13 00:24:56;;;;;;;29.23;16.42;;;;;;;7.57;64.71;100803.42;1734190;82;25804;-64
2021/10/13 00:27:23;;;;;;;28.05;15.75;;;;;;;7.53;64.75;100802.77;1727852;82;25829;-64
2021/10/13 00:29:49;;;;;;;29.95;14.47;;;;;;;7.50;64.78;100803.03;1730013;82;27443;-64
2021/10/13 00:32:16;;;;;;;22.85;14.85;;;;;;;7.52;64.77;100813.98;1733488;81;25804;-64
2021/10/13 00:34:43;;;;;;;24.98;15.40;;;;;;;7.51;64.72;100816.28;1767009;81;25636;-64
2021/10/13 00:37:10;;;;;;;30.92;15.58;;;;;;;7.51;64.73;100813.61;1766769;80;27911;-64
2021/10/13 00:39:36;;;;;;;24.40;14.73;;;;;;;7.51;64.73;100817.63;1759009;80;25826;-64
2021/10/13 00:42:04;;;;;;;23.15;15.38;;;;;;;7.52;65.12;100810.47;1768081;80;27850;-64
2021/10/13 00:44:31;;;;;;;24.85;14.65;;;;;;;7.51;65.19;100807.41;1756874;80;25778;-65
2021/10/13 00:47:00;;;;;;;20.80;13.62;;;;;;;7.53;65.23;100810.80;1740423;82;25818;-65
2021/10/13 00:49:27;;;;;;;27.32;15.20;;;;;;;7.55;65.45;100809.38;1756641;81;25811;-64
2021/10/13 00:51:54;;;;;;;27.58;15.80;;;;;;;7.49;65.81;100802.16;1740424;82;25806;-64
2021/10/13 00:54:24;;;;;;;24.52;13.83;;;;;;;7.48;65.81;100790.23;1724751;81;27515;-65
2021/10/13 00:56:51;;;;;;;27.62;15.20;;;;;;;7.52;66.00;100783.20;1740707;81;25780;-64
2021/10/13 00:59:18;;;;;;;23.77;13.83;;;;;;;7.55;66.43;100779.92;1741091;82;26215;-64
2021/10/13 01:01:54;;;;;;;21.48;13.40;;;;;;;7.56;66.26;100775.78;1749720;80;25806;-64
2021/10/13 01:05:11;;;;;;;27.30;13.05;;;;;;;7.48;66.91;100771.50;1738588;81;25976;-65
2021/10/13 01:07:52;;;;;;;28.05;14.35;;;;;;;7.41;67.10;100776.95;1697821;84;27439;-64
2021/10/13 01:10:45;;;;;;;26.25;14.10;;;;;;;7.31;67.29;100771.41;1703835;84;25841;-65
2021/10/13 01:13:48;;;;;;;27.95;14.78;;;;;;;7.28;67.84;100770.33;1676032;84;25729;-63
2021/10/13 01:16:39;;;;;;;26.82;16.45;;;;;;;7.23;67.76;100765.78;1672932;84;25783;-64
2021/10/13 01:19:15;;;;;;;21.90;15.03;;;;;;;7.26;67.64;100765.57;1675016;83;25801;-64
2021/10/13 01:22:14;;;;;;;29.40;15.78;;;;;;;7.29;67.44;100760.00;1661750;84;27506;-64
2021/10/13 01:25:14;;;;;;;25.52;13.98;;;;;;;7.35;67.49;100760.86;1656502;85;27248;-63
2021/10/13 01:28:01;;;;;;;25.27;14.70;;;;;;;7.33;67.21;100757.45;1679266;84;25810;-63
2021/10/13 01:30:55;;;;;;;24.27;15.60;;;;;;;7.33;67.08;100757.45;1691135;84;25828;-63
2021/10/13 01:33:27;;;;;;;31.75;16.00;;;;;;;7.35;66.89;100757.69;1697934;84;25939;-63
2021/10/13 01:35:59;;;;;;;25.15;14.63;;;;;;;7.40;66.79;100760.52;1698053;84;28312;-63
2021/10/13 01:38:30;;;;;;;25.52;16.37;;;;;;;7.41;66.59;100755.04;1699710;83;25751;-63
2021/10/13 01:41:02;;;;;;;23.00;14.35;;;;;;;7.38;66.68;100755.30;1690039;83;25740;-64
2021/10/13 01:43:35;;;;;;;23.07;15.38;;;;;;;7.38;66.69;100766.00;1709384;82;26440;-64
2021/10/13 01:46:06;;;;;;;27.80;15.50;;;;;;;7.35;66.75;100755.02;1694679;84;25787;-63
2021/10/13 01:48:35;;;;;;;26.82;15.80;;;;;;;7.31;66.79;100748.20;1693068;84;27504;-63
2021/10/13 01:51:03;;;;;;;25.55;15.03;;;;;;;7.31;67.39;100744.66;1676284;84;25801;-64
2021/10/13 01:53:32;;;;;;;22.98;14.25;;;;;;;7.21;67.39;100757.88;1727232;83;25497;-63
2021/10/13 01:56:02;;;;;;;34.18;15.18;;;;;;;7.15;68.01;100771.23;1712716;82;25780;-63
2021/10/13 01:58:30;;;;;;;25.57;15.85;;;;;;;7.16;67.68;100773.44;1674768;84;25683;-64
2021/10/13 02:00:58;;;;;;;28.27;15.58;;;;;;;7.17;67.97;100775.16;1666723;86;27538;-64
2021/10/13 02:03:28;;;;;;;25.15;14.45;;;;;;;7.19;67.81;100772.72;1678640;84;25493;-64
2021/10/13 02:06:00;;;;;;;29.92;14.20;;;;;;;7.25;67.81;100771.42;1662500;86;25743;-64
2021/10/13 02:08:29;;;;;;;23.83;14.50;;;;;;;7.31;67.73;100777.64;1667835;85;26479;-64
2021/10/13 02:10:59;;;;;;;27.37;15.98;;;;;;;7.35;67.62;100774.25;1657893;85;25728;-64
2021/10/13 02:13:32;;;;;;;26.37;14.60;;;;;;;7.37;67.67;100769.64;1677872;84;27632;-62
2021/10/13 02:16:01;;;;;;;27.85;15.18;;;;;;;7.41;67.36;100771.09;1645170;86;25817;-64
2021/10/13 02:18:31;;;;;;;23.55;14.70;;;;;;;7.45;67.38;100787.78;1652922;86;25767;-64
2021/10/13 02:21:02;;;;;;;30.08;15.88;;;;;;;7.47;67.38;100797.42;1656347;85;25839;-63
2021/10/13 02:23:35;;;;;;;26.30;15.65;;;;;;;7.34;67.64;100793.94;1654446;85;25745;-64
2021/10/13 02:26:13;;;;;;;28.10;16.45;;;;;;;7.21;67.51;100798.02;1659605;84;27468;-64
2021/10/13 02:28:51;;;;;;;31.70;16.52;;;;;;;7.08;68.11;100796.73;1639742;86;25817;-63
2021/10/13 02:31:21;;;;;;;29.75;16.15;;;;;;;6.95;68.44;100794.61;1658203;85;25666;-63
2021/10/13 02:33:48;;;;;;;30.05;17.50;;;;;;;6.86;68.73;100782.75;1668719;85;25837;-64
2021/10/13 02:36:15;;;;;;;31.73;16.67;;;;;;;6.81;69.07;100783.58;1672631;85;25466;-65
2021/10/13 02:38:42;;;;;;;29.77;15.13;;;;;;;6.76;69.36;100785.25;1664592;85;27515;-65
2021/10/13 02:41:09;;;;;;;32.80;16.57;;;;;;;6.69;69.75;100786.16;1662531;85;25455;-64
2021/10/13 02:43:37;;;;;;;31.10;17.10;;;;;;;6.68;69.45;100786.28;1614585;88;25770;-65
2021/10/13 02:46:09;;;;;;;24.82;15.43;;;;;;;6.67;69.55;100780.06;1615832;88;25868;-63
2021/10/13 02:48:37;;;;;;;28.90;16.42;;;;;;;6.69;69.37;100784.83;1621091;87;25882;-64
2021/10/13 02:51:23;;;;;;;30.02;15.72;;;;;;;6.75;69.44;100795.56;1645209;86;27554;-64
2021/10/13 02:54:12;;;;;;;32.98;17.70;;;;;;;6.78;69.28;100801.17;1663322;86;25486;-65
2021/10/13 02:56:44;;;;;;;30.32;15.88;;;;;;;6.81;69.47;100797.79;1657229;85;25863;-64
2021/10/13 02:59:20;;;;;;;25.72;16.05;;;;;;;6.83;69.38;100794.53;1671616;85;25887;-64
2021/10/13 03:01:47;;;;;;;29.75;16.42;;;;;;;6.81;69.18;100808.48;1668854;85;26027;-65
2021/10/13 03:04:21;;;;;;;26.95;16.80;;;;;;;6.78;69.37;100807.85;1654968;85;28356;-64
2021/10/13 03:07:14;;;;;;;28.45;16.07;;;;;;;6.71;69.73;100810.11;1675205;84;25821;-64
2021/10/13 03:09:55;;;;;;;31.90;16.57;;;;;;;6.62;70.03;100808.97;1680937;84;25808;-63
2021/10/13 03:12:30;;;;;;;29.77;16.20;;;;;;;6.52;70.48;100807.41;1685932;84;25860;-64
2021/10/13 03:14:59;;;;;;;32.53;16.35;;;;;;;6.45;70.85;100814.16;1677625;83;25492;-64
2021/10/13 03:17:27;;;;;;;28.55;15.95;;;;;;;6.40;71.08;100819.83;1678452;85;28185;-64
2021/10/13 03:19:56;;;;;;;25.43;15.13;;;;;;;6.37;71.08;100813.84;1680320;84;25764;-64
2021/10/13 03:22:26;;;;;;;26.10;15.40;;;;;;;6.34;71.36;100814.05;1682450;84;25991;-65
2021/10/13 03:24:53;;;;;;;30.72;16.17;;;;;;;6.34;71.31;100808.25;1688163;84;25856;-63
2021/10/13 03:27:27;;;;;;;24.55;15.88;;;;;;;6.34;71.44;100814.92;1686862;84;25520;-63
2021/10/13 03:29:54;;;;;;;29.27;17.40;;;;;;;6.35;71.83;100816.64;1677157;84;27724;-63
2021/10/13 03:32:21;;;;;;;28.55;16.67;;;;;;;6.35;71.25;100816.64;1681556;84;25451;-63
2021/10/13 03:34:49;;;;;;;26.73;15.60;;;;;;;6.34;71.40;100811.38;1678673;84;25747;-63
2021/10/13 03:37:19;;;;;;;28.52;15.65;;;;;;;6.37;71.60;100808.50;1688541;84;26169;-64
2021/10/13 03:39:48;;;;;;;27.62;16.37;;;;;;;6.44;71.40;100815.61;1688578;84;26256;-65
2021/10/13 03:42:16;;;;;;;28.57;16.07;;;;;;;6.46;71.40;100810.53;1699132;83;27497;-63
2021/10/13 03:44:43;;;;;;;29.67;16.17;;;;;;;6.51;71.16;100812.38;1702420;83;25475;-65
2021/10/13 03:47:11;;;;;;;29.92;17.60;;;;;;;6.56;71.17;100815.59;1699328;84;25819;-65
2021/10/13 03:49:38;;;;;;;27.25;16.48;;;;;;;6.62;70.90;100817.45;1692961;84;25783;-64
2021/10/13 03:52:06;;;;;;;28.85;16.45;;;;;;;6.68;70.68;100817.88;1688644;84;25790;-64
2021/10/13 03:54:33;;;;;;;26.48;16.00;;;;;;;6.76;70.53;100816.00;1678069;84;28143;-65
2021/10/13 03:57:00;;;;;;;29.37;15.28;;;;;;;6.80;70.28;100814.80;1682586;84;25804;-65
2021/10/13 03:59:27;;;;;;;25.27;15.50;;;;;;;6.91;70.20;100809.99;1674873;84;25756;-64
2021/10/13 04:01:53;;;;;;;30.75;16.27;;;;;;;7.01;70.08;100816.39;1683293;84;25908;-64
2021/10/13 04:04:20;;;;;;;25.10;14.85;;;;;;;7.12;69.77;100814.28;1655471;85;25948;-65
2021/10/13 04:06:47;;;;;;;26.00;16.50;;;;;;;7.21;69.46;100815.41;1660620;84;27449;-64
2021/10/13 04:09:14;;;;;;;38.98;16.52;;;;;;;7.27;69.15;100813.61;1673068;84;25856;-64
2021/10/13 04:11:41;;;;;;;34.75;14.80;;;;;;;7.33;68.87;100809.16;1690821;84;26042;-65
2021/10/13 04:14:08;;;;;;;27.50;16.07;;;;;;;7.38;68.54;100811.50;1686961;84;25831;-65
2021/10/13 04:16:34;;;;;;;38.05;16.48;;;;;;;7.43;68.37;100814.67;1666161;85;25844;-63
2021/10/13 04:19:01;;;;;;;32.98;15.53;;;;;;;7.47;68.10;100812.61;1667793;86;28627;-64
2021/10/13 04:21:28;;;;;;;26.57;15.58;;;;;;;7.50;67.89;100811.89;1681066;83;25804;-64
2021/10/13 04:23:55;;;;;;;29.05;16.57;;;;;;;7.54;67.63;100815.69;1697169;83;25879;-65
2021/10/13 04:26:21;;;;;;;30.72;16.90;;;;;;;7.54;67.49;100814.35;1684485;84;26575;-64
2021/10/13 04:28:48;;;;;;;30.05;15.23;;;;;;;7.56;67.41;100817.78;1680978;84;25790;-65
2021/10/13 04:31:15;;;;;;;28.73;16.23;;;;;;;7.51;67.21;100819.45;1667166;85;27423;-65
2021/10/13 04:33:42;;;;;;;31.10;15.32;;;;;;;7.44;67.29;100820.89;1672683;84;25812;-64
2021/10/13 04:36:09;;;;;;;32.85;16.52;;;;;;;7.44;67.25;100824.91;1659088;84;26706;-65
2021/10/13 04:38:36;;;;;;;34.83;15.15;;;;;;;7.51;67.30;100830.16;1679354;84;25838;-64
2021/10/13 04:41:04;;;;;;;33.88;17.82;;;;;;;7.54;67.30;100830.41;1689843;84;25864;-65
2021/10/13 04:43:31;;;;;;;35.15;16.27;;;;;;;7.57;67.32;100826.18;1700455;84;27504;-65
2021/10/13 04:45:58;;;;;;;43.55;18.05;;;;;;;7.65;67.40;100826.45;1690265;83;25804;-64
2021/10/13 04:48:24;;;;;;;32.83;16.77;;;;;;;7.73;67.37;100832.55;1682456;83;26513;-64
2021/10/13 04:50:51;;;;;;;30.80;15.80;;;;;;;7.81;67.32;100829.67;1672236;84;26529;-64
2021/10/13 04:53:18;;;;;;;28.02;15.13;;;;;;;7.90;67.06;100831.27;1669104;84;25783;-64
2021/10/13 04:55:45;;;;;;;26.68;15.32;;;;;;;7.95;66.75;100837.13;1689571;84;27465;-65
2021/10/13 04:58:12;;;;;;;27.42;14.75;;;;;;;7.98;66.36;100836.39;1672390;84;25934;-64
2021/10/13 05:00:39;;;;;;;34.18;14.65;;;;;;;8.01;66.41;100833.99;1677255;84;25794;-64
2021/10/13 05:03:06;;;;;;;25.52;15.32;;;;;;;8.05;66.05;100830.09;1698567;84;26242;-63
2021/10/13 05:05:36;;;;;;;36.00;15.58;;;;;;;8.05;65.77;100830.59;1678975;84;25868;-63
2021/10/13 05:08:04;;;;;;;31.33;14.98;;;;;;;8.07;65.84;100836.19;1671100;84;27503;-63
2021/10/13 05:10:31;;;;;;;38.17;15.32;;;;;;;8.05;65.40;100842.14;1685434;83;25772;-63
2021/10/13 05:12:58;;;;;;;29.92;16.23;;;;;;;8.01;65.09;100842.50;1680493;83;25796;-64
2021/10/13 05:15:24;;;;;;;31.95;16.55;;;;;;;7.94;65.20;100844.31;1674230;84;25844;-63
2021/10/13 05:17:51;;;;;;;41.77;17.35;;;;;;;7.93;65.27;100849.80;1695331;84;25844;-64
2021/10/13 05:20:18;;;;;;;31.90;18.05;;;;;;;7.94;65.25;100847.47;1682119;84;27459;-64
2021/10/13 05:22:45;;;;;;;39.48;17.20;;;;;;;7.95;65.28;100846.03;1672890;84;25809;-64
2021/10/13 05:25:12;;;;;;;38.53;18.98;;;;;;;7.97;65.19;100852.59;1671577;84;25822;-63
2021/10/13 05:27:39;;;;;;;37.75;19.30;;;;;;;7.99;65.10;100853.34;1681815;84;26608;-63
2021/10/13 05:30:09;;;;;;;36.63;18.95;;;;;;;7.97;65.15;100853.94;1700088;83;25954;-64
2021/10/13 05:32:36;;;;;;;41.95;18.77;;;;;;;7.97;65.21;100857.48;1671876;84;27486;-64
2021/10/13 05:35:04;;;;;;;33.33;18.98;;;;;;;8.01;65.27;100861.25;1680367;83;27240;-64
2021/10/13 05:37:31;;;;;;;38.00;18.07;;;;;;;8.06;65.10;100857.25;1700080;84;25922;-64
2021/10/13 05:39:58;;;;;;;35.85;17.55;;;;;;;8.09;64.94;100858.37;1683714;82;25825;-63
2021/10/13 05:42:25;;;;;;;29.52;17.67;;;;;;;8.11;64.99;100863.09;1687622;84;25732;-64
2021/10/13 05:44:52;;;;;;;43.10;17.67;;;;;;;8.11;64.91;100865.78;1673628;84;28263;-63
2021/10/13 05:47:19;;;;;;;32.42;19.02;;;;;;;7.99;65.15;100871.59;1673411;84;25847;-63
2021/10/13 05:49:46;;;;;;;39.70;17.73;;;;;;;7.91;65.35;100874.50;1678622;84;25759;-63
2021/10/13 05:52:14;;;;;;;34.10;17.55;;;;;;;7.87;65.50;100875.23;1675174;83;25814;-64
2021/10/13 05:54:41;;;;;;;33.58;18.62;;;;;;;7.85;65.61;100877.16;1673609;84;25764;-63
2021/10/13 05:57:08;;;;;;;35.58;19.48;;;;;;;7.81;65.87;100884.58;1678998;84;27490;-64
2021/10/13 05:59:37;;;;;;;41.83;21.57;;;;;;;7.74;66.16;100886.02;1679668;83;25807;-63
2021/10/13 06:02:18;;;;;;;40.43;20.80;;;;;;;7.72;66.19;100884.39;1687046;84;25854;-66
2021/10/13 06:04:45;;;;;;;42.78;23.00;;;;;;;7.72;66.20;100881.25;1677318;83;26852;-63
2021/10/13 06:07:11;;;;;;;46.95;22.27;;;;;;;7.79;66.17;100887.01;1677118;83;25987;-64
2021/10/13 06:09:38;;;;;;;43.98;22.60;;;;;;;7.84;66.09;100895.53;1684578;83;28226;-64
2021/10/13 06:12:06;;;;;;;47.73;22.50;;;;;;;7.88;65.96;100891.67;1672690;84;25844;-64
2021/10/13 06:14:33;;;;;;;39.00;20.85;;;;;;;7.98;65.80;100889.98;1693570;83;25865;-63
2021/10/13 06:17:00;;;;;;;45.80;23.70;;;;;;;8.01;65.72;100892.06;1690640;84;25906;-63
2021/10/13 06:19:28;;;;;;;38.05;21.45;;;;;;;7.97;65.59;100887.42;1697474;84;25846;-64
2021/10/13 06:21:55;;;;;;;39.78;21.57;;;;;;;7.99;65.64;100886.83;1688161;84;28255;-64
2021/10/13 06:24:22;;;;;;;41.02;22.25;;;;;;;7.99;65.56;100898.39;1695268;84;25811;-64
2021/10/13 06:26:49;;;;;;;41.28;21.27;;;;;;;8.02;65.61;100896.45;1676330;83;25764;-63
2021/10/13 06:29:17;;;;;;;39.60;20.10;;;;;;;8.06;65.56;100897.44;1685414;83;26490;-63
2021/10/13 06:31:44;;;;;;;39.27;21.37;;;;;;;8.15;65.60;100902.10;1682269;83;25771;-63
2021/10/13 06:34:11;;;;;;;38.92;20.68;;;;;;;8.20;65.41;100900.91;1683636;84;27501;-63
2021/10/13 06:36:38;;;;;;;36.28;20.20;;;;;;;8.18;65.30;100902.34;1717407;82;25937;-63
2021/10/13 06:39:05;;;;;;;39.13;20.68;;;;;;;8.26;65.41;100905.29;1680919;83;25858;-63
2021/10/13 06:41:32;;;;;;;35.03;20.40;;;;;;;8.25;65.24;100910.78;1686719;83;26599;-64
2021/10/13 06:43:59;;;;;;;50.08;20.92;;;;;;;8.28;65.30;100906.03;1679712;84;25895;-63
2021/10/13 06:46:27;;;;;;;36.60;20.70;;;;;;;8.38;65.21;100908.00;1679450;84;27485;-64
2021/10/13 06:48:54;;;;;;;39.83;20.77;;;;;;;8.50;65.07;100919.16;1681021;83;27241;-64
2021/10/13 06:51:20;;;;;;;47.95;21.57;;;;;;;8.58;64.96;100910.50;1672845;84;25914;-64
2021/10/13 06:53:47;;;;;;;41.65;19.25;;;;;;;8.69;64.86;100909.18;1675312;84;26997;-64
2021/10/13 06:56:15;;;;;;;38.75;19.37;;;;;;;8.83;64.69;100906.75;1687311;84;25779;-65
2021/10/13 06:58:42;;;;;;;40.50;19.25;;;;;;;8.91;64.22;100900.28;1681819;84;27539;-65
2021/10/13 07:01:09;;;;;;;36.88;19.17;;;;;;;9.00;63.88;100902.73;1681137;84;25784;-64
2021/10/13 07:03:36;;;;;;;35.30;20.62;;;;;;;9.06;63.52;100902.70;1681638;84;25812;-64
2021/10/13 07:06:03;;;;;;;43.05;20.23;;;;;;;9.11;63.32;100915.75;1665276;84;26287;-63
2021/10/13 07:08:30;;;;;;;38.75;21.50;;;;;;;9.14;62.61;100907.00;1698785;83;25694;-64
2021/10/13 07:10:57;;;;;;;34.50;21.02;;;;;;;9.13;62.51;100908.44;1700702;82;27606;-64
2021/10/13 07:13:24;;;;;;;35.40;19.57;;;;;;;9.15;61.95;100914.55;1715563;82;26032;-63
2021/10/13 07:15:50;;;;;;;50.10;21.95;;;;;;;9.18;62.00;100914.31;1701063;84;25825;-65
2021/10/13 07:18:18;;;;;;;37.65;21.62;;;;;;;9.24;61.62;100919.17;1691828;83;26260;-63
2021/10/13 07:20:45;;;;;;;39.85;21.10;;;;;;;9.28;61.47;100919.27;1693248;84;25802;-65
2021/10/13 07:23:12;;;;;;;37.45;20.75;;;;;;;9.30;61.37;100923.20;1680611;84;27279;-63
2021/10/13 07:25:39;;;;;;;45.40;22.37;;;;;;;9.32;61.61;100931.48;1670922;85;25903;-63
2021/10/13 07:28:07;;;;;;;42.33;21.93;;;;;;;9.36;61.56;100928.94;1683409;84;26533;-65
2021/10/13 07:30:34;;;;;;;36.13;20.30;;;;;;;9.36;61.49;100934.77;1671936;84;26662;-65
2021/10/13 07:33:05;;;;;;;40.78;23.27;;;;;;;9.35;61.51;100936.62;1679796;84;26618;-64
2021/10/13 07:35:32;;;;;;;43.20;23.18;;;;;;;9.31;61.66;100928.44;1671593;85;28202;-65
2021/10/13 07:38:02;;;;;;;38.33;23.27;;;;;;;9.31;61.78;100935.14;1664401;84;25786;-64
2021/10/13 07:40:32;;;;;;;38.65;22.58;;;;;;;9.29;61.79;100938.44;1672338;85;25757;-65
2021/10/13 07:42:59;;;;;;;41.37;23.38;;;;;;;9.33;61.93;100937.22;1669337;84;25824;-64
2021/10/13 07:45:27;;;;;;;40.25;21.90;;;;;;;9.32;61.80;100940.88;1672201;84;26416;-63
2021/10/13 07:47:53;;;;;;;36.73;22.25;;;;;;;9.39;61.88;100937.22;1669376;84;28387;-65
2021/10/13 07:50:21;;;;;;;41.55;22.65;;;;;;;9.46;61.72;100938.92;1674031;84;25796;-63
2021/10/13 07:52:47;;;;;;;43.78;22.98;;;;;;;9.54;61.50;100937.30;1671411;84;25826;-63
2021/10/13 07:55:16;;;;;;;41.15;21.27;;;;;;;9.53;61.29;100940.12;1666841;86;25817;-63
2021/10/13 07:57:43;;;;;;;41.15;20.30;;;;;;;9.59;61.29;100939.61;1648664;85;25842;-64
2021/10/13 08:00:12;;;;;;;38.38;20.02;;;;;;;9.58;60.85;100943.27;1682816;84;27493;-64
2021/10/13 08:02:47;;;;;;;42.27;19.98;;;;;;;9.59;61.48;100934.75;1681326;83;25873;-62
2021/10/13 08:05:18;;;;;;;39.10;21.48;;;;;;;9.65;60.95;100936.42;1673922;83;25933;-62
2021/10/13 08:07:47;;;;;;;39.40;21.57;;;;;;;9.71;60.85;100935.06;1671102;84;26400;-64
2021/10/13 08:10:14;;;;;;;44.48;22.77;;;;;;;9.73;60.60;100933.61;1682849;83;25816;-63
2021/10/13 08:12:41;;;;;;;38.48;22.25;;;;;;;9.74;60.65;100940.19;1664070;83;27991;-64
2021/10/13 08:15:10;;;;;;;39.20;22.60;;;;;;;9.69;60.47;100938.36;1684155;84;26410;-64
2021/10/13 08:17:39;;;;;;;45.03;23.40;;;;;;;9.63;60.50;100930.81;1677990;84;25803;-64
2021/10/13 08:20:10;;;;;;;37.10;21.65;;;;;;;9.65;60.68;100936.92;1678478;84;25785;-62
2021/10/13 08:22:38;;;;;;;44.23;24.52;;;;;;;9.69;60.64;100943.73;1678903;84;25746;-63
2021/10/13 08:25:07;;;;;;;38.02;23.12;;;;;;;9.65;60.66;100947.16;1669078;84;28302;-65
2021/10/13 08:27:35;;;;;;;45.38;24.87;;;;;;;9.60;60.88;100944.48;1678052;84;25760;-63
2021/10/13 08:30:05;;;;;;;50.25;24.98;;;;;;;9.49;60.88;100946.72;1682010;84;26383;-62
2021/10/13 08:32:35;;;;;;;45.70;23.40;;;;;;;9.53;61.10;100942.81;1692379;84;26432;-64
2021/10/13 08:35:03;;;;;;;54.67;26.65;;;;;;;9.64;61.25;100945.95;1680549;84;25792;-63
2021/10/13 08:37:32;;;;;;;56.10;25.57;;;;;;;9.54;60.82;100936.47;1697420;83;28306;-64
2021/10/13 08:39:59;;;;;;;45.88;25.57;;;;;;;9.59;61.06;100932.91;1704545;82;25785;-63
2021/10/13 08:42:27;;;;;;;48.05;25.27;;;;;;;9.55;60.77;100936.80;1681705;83;25746;-65
2021/10/13 08:44:56;;;;;;;48.95;26.52;;;;;;;9.46;60.88;100927.68;1690993;84;26459;-64
2021/10/13 08:47:24;;;;;;;41.58;25.85;;;;;;;9.46;61.06;100934.90;1694032;83;25960;-65
2021/10/13 08:49:51;;;;;;;50.30;26.00;;;;;;;9.45;61.22;100934.53;1671106;83;28065;-64
2021/10/13 08:52:20;;;;;;;49.30;26.75;;;;;;;9.53;61.42;100941.47;1678741;84;25806;-64
2021/10/13 08:54:47;;;;;;;52.23;27.55;;;;;;;9.55;61.31;100936.33;1669273;85;26457;-64
2021/10/13 08:57:28;;;;;;;46.65;26.70;;;;;;;9.57;61.49;100934.85;1675470;84;26011;-66
2021/10/13 08:59:57;;;;;;;52.17;29.40;;;;;;;9.65;61.47;100940.45;1684052;84;25860;-64
2021/10/13 09:02:42;;;;;;;51.63;27.73;;;;;;;9.67;61.46;100943.87;1691235;83;27426;-64
2021/10/13 09:05:20;;;;;;;58.63;28.95;;;;;;;9.77;61.44;100944.45;1687300;84;26046;-63
2021/10/13 09:07:57;;;;;;;52.53;29.05;;;;;;;9.99;61.73;100943.05;1680362;83;26508;-63
2021/10/13 09:10:31;;;;;;;50.95;28.47;;;;;;;10.22;61.36;100945.63;1694301;83;26487;-62
2021/10/13 09:13:07;;;;;;;55.92;30.80;;;;;;;10.38;60.97;100948.38;1690491;83;25749;-63
2021/10/13 09:15:41;;;;;;;55.40;28.85;;;;;;;10.54;60.62;100945.23;1694322;82;28180;-65
2021/10/13 09:18:08;;;;;;;;;;;;;;;10.69;60.28;100936.34;1686464;83;25994;-64
2021/10/13 09:20:39;;;;;;;49.33;29.55;;;;;;;10.79;59.40;100943.98;1681203;84;25756;-64
2021/10/13 09:23:29;;;;;;;56.55;30.17;;;;;;;10.84;58.92;100943.08;1679279;84;26426;-63
2021/10/13 09:26:08;;;;;;;54.20;29.63;;;;;;;10.85;58.73;100942.09;1676961;84;53026;-64
2021/10/13 09:28:37;;;;;;;58.42;31.80;;;;;;;10.87;58.37;100940.60;1685946;84;27464;-64
2021/10/13 09:31:22;;;;;;;55.28;31.15;;;;;;;10.85;58.52;100940.75;1673549;85;25880;-64
2021/10/13 09:34:06;;;;;;;62.55;33.08;;;;;;;10.85;58.21;100946.13;1683560;84;26206;-64
2021/10/13 09:36:40;;;;;;;59.63;31.48;;;;;;;10.82;58.46;100946.89;1677508;84;26425;-66
2021/10/13 09:39:17;;;;;;;59.83;31.35;;;;;;;10.80;58.55;100943.00;1692189;83;25839;-63
2021/10/13 09:42:09;;;;;;;59.00;32.40;;;;;;;10.84;58.63;100947.62;1680284;84;27261;-64
2021/10/13 09:44:43;;;;;;;56.45;32.90;;;;;;;10.90;58.31;100953.30;1677887;84;25779;-64
2021/10/13 09:47:12;;;;;;;61.00;34.43;;;;;;;10.87;58.40;100959.44;1689699;84;25835;-65
2021/10/13 09:49:45;;;;;;;62.75;36.20;;;;;;;10.89;58.60;100953.44;1683489;84;26596;-64
2021/10/13 09:52:18;;;;;;;63.93;35.03;;;;;;;10.92;58.58;100952.67;1682005;84;25774;-63
2021/10/13 09:54:50;;;;;;;62.65;33.67;;;;;;;10.99;58.76;100949.44;1656523;84;27499;-64
2021/10/13 09:57:22;;;;;;;59.42;31.80;;;;;;;11.13;58.52;100954.48;1678116;84;26000;-65
2021/10/13 10:00:15;;;;;;;60.20;33.65;;;;;;;11.22;58.43;100952.31;1683153;84;25796;-64
2021/10/13 10:03:04;;;;;;;62.30;34.87;;;;;;;11.11;57.88;100945.20;1680775;84;26520;-63
2021/10/13 10:05:34;;;;;;;59.42;34.67;;;;;;;11.00;58.18;100953.84;1685699;84;26488;-64
2021/10/13 10:08:10;;;;;;;60.90;34.53;;;;;;;10.91;58.50;100948.27;1678247;84;27483;-65
2021/10/13 10:10:58;;;;;;;59.45;31.05;;;;;;;10.97;58.50;100944.20;1681292;83;25763;-64
2021/10/13 10:13:40;;;;;;;61.92;34.38;;;;;;;11.20;58.22;100947.55;1688382;84;25732;-63
2021/10/13 10:16:11;;;;;;;55.30;31.05;;;;;;;11.64;57.86;100939.19;1686928;84;25789;-63
2021/10/13 10:18:40;;;;;;;57.62;30.57;;;;;;;12.12;57.36;100938.02;1691640;84;25819;-67
2021/10/13 10:21:20;;;;;;;48.90;29.60;;;;;;;12.56;56.97;100935.70;1679749;84;27416;-64
2021/10/13 10:23:50;;;;;;;54.27;27.55;;;;;;;13.01;54.06;100935.51;1709884;82;26304;-65
2021/10/13 10:26:31;;;;;;;42.93;27.55;;;;;;;13.54;51.94;100934.49;1680784;83;25798;-65
2021/10/13 10:29:14;;;;;;;48.52;28.23;;;;;;;14.15;51.10;100924.80;1690568;84;25798;-64
2021/10/13 10:31:51;;;;;;;50.58;28.07;;;;;;;14.66;49.51;100919.60;1660187;85;26006;-63
2021/10/13 10:34:22;;;;;;;45.30;26.73;;;;;;;15.28;47.69;100921.78;1679921;83;29608;-64
2021/10/13 10:36:57;;;;;;;50.12;25.95;;;;;;;16.13;48.76;100914.02;1686193;83;25945;-63
2021/10/13 10:39:57;;;;;;;44.30;26.12;;;;;;;16.94;44.95;100920.91;1679201;84;25800;-65
2021/10/13 10:42:48;;;;;;;42.48;24.52;;;;;;;17.84;45.63;100922.33;1675718;84;26509;-64
2021/10/13 10:45:22;;;;;;;42.43;24.85;;;;;;;18.68;40.98;100925.22;1681070;84;25846;-64
2021/10/13 10:48:03;;;;;;;47.10;23.55;;;;;;;18.97;41.06;100924.95;1693178;84;27441;-64
2021/10/13 10:50:53;;;;;;;55.43;23.32;;;;;;;19.53;38.83;100917.58;1692027;84;25780;-64
2021/10/13 10:53:37;;;;;;;37.58;23.07;;;;;;;19.90;37.18;100922.53;1689986;84;26485;-65
2021/10/13 10:56:27;;;;;;;31.87;19.87;;;;;;;19.96;37.62;100911.36;1714435;82;25951;-64
2021/10/13 10:59:02;;;;;;;35.13;21.62;;;;;;;20.06;36.86;100912.38;1672479;84;25999;-66
2021/10/13 11:01:36;;;;;;;31.70;20.27;;;;;;;20.12;36.46;100916.55;1676969;84;28184;-66
2021/10/13 11:04:08;;;;;;;40.35;22.32;;;;;;;20.37;36.00;100916.66;1659702;84;26039;-65
2021/10/13 11:06:38;;;;;;;39.53;21.27;;;;;;;20.76;36.00;100920.24;1685355;83;25871;-66
2021/10/13 11:09:11;;;;;;;38.78;22.13;;;;;;;21.14;36.38;100913.50;1671320;84;25822;-65
2021/10/13 11:11:47;;;;;;;39.90;21.65;;;;;;;21.61;36.00;100915.62;1677011;83;25889;-66
2021/10/13 11:14:21;;;;;;;32.63;22.22;;;;;;;21.00;33.42;100919.42;1678754;84;28273;-64
2021/10/13 11:16:58;;;;;;;34.83;20.65;;;;;;;20.73;33.77;100919.77;1673598;84;25893;-65
2021/10/13 11:19:31;;;;;;;38.33;22.25;;;;;;;21.10;34.33;100909.50;1674482;82;25850;-65
2021/10/13 11:22:06;;;;;;;37.50;20.70;;;;;;;20.94;33.77;100919.70;1678581;83;25814;-66
2021/10/13 11:24:41;;;;;;;34.58;19.82;;;;;;;20.72;34.85;100909.88;1669889;84;25914;-65
2021/10/13 11:27:09;;;;;;;;;;;;;;;20.89;34.91;100910.41;1659486;84;27724;-66
2021/10/13 11:29:38;;;;;;;31.77;18.48;;;;;;;20.96;35.28;100904.48;1698858;83;25740;-63
2021/10/13 11:32:11;;;;;;;35.17;19.55;;;;;;;20.80;34.34;100916.05;1685039;83;25835;-65
2021/10/13 11:34:38;;;;;;;;;;;;;;;20.80;32.57;100908.37;1686013;84;25931;-64